Time;durP1;ratioP1;P1;durP2;ratioP2;P2;SDS_P1;SDS_P2;PMS_P1;PMS_P2;Temp;Humidity;BMP_temperature;BMP_pressure;BME280_temperature;BME280_humidity;BME280_pressure;Samples;Min_cycle;Max_cycle;Signal;HPM_P1;HPM_P2
2021/10/13 00:00:29;;;;;;;;;;;;;;;;;;2115358;28;20411;-45
2021/10/13 00:01:30;;;;;;;;;;;;;;;;;;2115278;28;20380;-45
2021/10/13 00:02:31;;;;;;;;;;;;;;;;;;2115734;28;19928;-45
2021/10/13 00:03:32;;;;;;;;;;;;;;;;;;2115412;28;19931;-44
2021/10/13 00:04:33;;;;;;;;;;;;;;;;;;2115518;28;20320;-45
2021/10/13 00:05:34;;;;;;;;;;;;;;;;;;2115349;28;19984;-44
2021/10/13 00:06:34;;;;;;;;;;;;;;;;;;2115501;28;19946;-44
2021/10/13 00:07:35;;;;;;;;;;;;;;;;;;2115338;28;20266;-44
2021/10/13 00:08:36;;;;;;;;;;;;;;;;;;2115538;28;19977;-45
2021/10/13 00:09:37;;;;;;;;;;;;;;;;;;2115142;28;19923;-45
2021/10/13 00:10:37;;;;;;;;;;;;;;;;;;2115404;28;19924;-44
2021/10/13 00:11:38;;;;;;;;;;;;;;;;;;2115379;28;19931;-45
2021/10/13 00:12:39;;;;;;;;;;;;;;;;;;2115477;28;20368;-45
2021/10/13 00:13:40;;;;;;;;;;;;;;;;;;2115418;28;19927;-44
2021/10/13 00:14:41;;;;;;;;;;;;;;;;;;2115474;28;19923;-45
2021/10/13 00:15:42;;;;;;;;;;;;;;;;;;2115294;28;19969;-44
2021/10/13 00:16:51;;;;;;;;;;;;;;;;;;2115485;28;19988;-44
2021/10/13 00:17:52;;;;;;;;;;;;;;;;;;2115419;28;20289;-45
2021/10/13 00:18:53;;;;;;;;;;;;;;;;;;2115516;28;19924;-45
2021/10/13 00:19:54;;;;;;;;;;;;;;;;;;2115322;28;19973;-44
2021/10/13 00:20:54;;;;;;;;;;;;;;;;;;2115014;28;19924;-45
2021/10/13 00:21:55;;;;;;;;;;;;;;;;;;2115275;28;19923;-44
2021/10/13 00:22:56;;;;;;;;;;;;;;;;;;2115412;28;19946;-44
2021/10/13 00:23:57;;;;;;;;;;;;;;;;;;2115284;28;19924;-44
2021/10/13 00:24:58;;;;;;;;;;;;;;;;;;2115152;28;19928;-45
2021/10/13 00:25:58;;;;;;;;;;;;;;;;;;2115318;28;19924;-44
2021/10/13 00:26:59;;;;;;;;;;;;;;;;;;2115434;28;19928;-44
2021/10/13 00:28:00;;;;;;;;;;;;;;;;;;2115295;28;20330;-44
2021/10/13 00:29:01;;;;;;;;;;;;;;;;;;2115150;28;19923;-44
2021/10/13 00:30:02;;;;;;;;;;;;;;;;;;2115285;28;19930;-44
2021/10/13 00:31:02;;;;;;;;;;;;;;;;;;2115080;28;20284;-45
2021/10/13 00:32:04;;;;;;;;;;;;;;;;;;2115318;28;20357;-45
2021/10/13 00:33:05;;;;;;;;;;;;;;;;;;2115259;28;20373;-45
2021/10/13 00:34:06;;;;;;;;;;;;;;;;;;2115164;28;19923;-45
2021/10/13 00:35:06;;;;;;;;;;;;;;;;;;2115210;28;19924;-44
2021/10/13 00:36:07;;;;;;;;;;;;;;;;;;2115061;28;19936;-44
2021/10/13 00:37:08;;;;;;;;;;;;;;;;;;2115246;28;20281;-45
2021/10/13 00:38:09;;;;;;;;;;;;;;;;;;2115273;28;19923;-44
2021/10/13 00:39:10;;;;;;;;;;;;;;;;;;2115248;28;19924;-44
2021/10/13 00:40:11;;;;;;;;;;;;;;;;;;2115149;28;19924;-44
2021/10/13 00:41:12;;;;;;;;;;;;;;;;;;2114935;28;19999;-45
2021/10/13 00:42:14;;;;;;;;;;;;;;;;;;2115157;28;19928;-44
2021/10/13 00:43:14;;;;;;;;;;;;;;;;;;2115392;28;20024;-44
2021/10/13 00:44:15;;;;;;;;;;;;;;;;;;2115127;28;19956;-45
2021/10/13 00:45:16;;;;;;;;;;;;;;;;;;2115204;28;19923;-45
2021/10/13 00:46:17;;;;;;;;;;;;;;;;;;2115024;28;19923;-45
2021/10/13 00:47:18;;;;;;;;;;;;;;;;;;2115294;28;19967;-44
2021/10/13 00:48:18;;;;;;;;;;;;;;;;;;2115186;28;19923;-44
2021/10/13 00:49:19;;;;;;;;;;;;;;;;;;2115202;28;19924;-44
2021/10/13 00:50:20;;;;;;;;;;;;;;;;;;2114999;28;19931;-44
2021/10/13 00:51:21;;;;;;;;;;;;;;;;;;2115433;28;19924;-44
2021/10/13 00:52:22;;;;;;;;;;;;;;;;;;2115011;28;20404;-44
2021/10/13 00:53:22;;;;;;;;;;;;;;;;;;2115183;28;19949;-44
2021/10/13 00:54:24;;;;;;;;;;;;;;;;;;2114013;28;20365;-44
2021/10/13 00:55:24;;;;;;;;;;;;;;;;;;2115258;28;19930;-45
2021/10/13 00:56:26;;;;;;;;;;;;;;;;;;2114842;28;19946;-44
2021/10/13 00:57:26;;;;;;;;;;;;;;;;;;2115101;28;20293;-44
2021/10/13 00:58:27;;;;;;;;;;;;;;;;;;2114796;28;19923;-44
2021/10/13 00:59:28;;;;;;;;;;;;;;;;;;2115372;28;19963;-44
2021/10/13 01:00:29;;;;;;;;;;;;;;;;;;2114917;28;19924;-45
2021/10/13 01:01:30;;;;;;;;;;;;;;;;;;2115260;28;20095;-44
2021/10/13 01:02:33;;;;;;;;;;;;;;;;;;2115142;28;19938;-44
2021/10/13 01:03:34;;;;;;;;;;;;;;;;;;2115062;28;19924;-44
2021/10/13 01:04:35;;;;;;;;;;;;;;;;;;2114853;28;19931;-44
2021/10/13 01:05:36;;;;;;;;;;;;;;;;;;2115035;28;19924;-44
2021/10/13 01:06:40;;;;;;;;;;;;;;;;;;2114833;28;19923;-44
2021/10/13 01:07:42;;;;;;;;;;;;;;;;;;2115124;28;19935;-44
2021/10/13 01:08:42;;;;;;;;;;;;;;;;;;2115000;28;20392;-44
2021/10/13 01:09:43;;;;;;;;;;;;;;;;;;2114923;28;20441;-45
2021/10/13 01:10:44;;;;;;;;;;;;;;;;;;2114767;28;19930;-45
2021/10/13 01:11:45;;;;;;;;;;;;;;;;;;2115045;28;19973;-44
2021/10/13 01:12:52;;;;;;;;;;;;;;;;;;2114965;28;20288;-44
2021/10/13 01:13:53;;;;;;;;;;;;;;;;;;2115048;28;19973;-44
2021/10/13 01:14:54;;;;;;;;;;;;;;;;;;2115132;28;20123;-45
2021/10/13 01:15:55;;;;;;;;;;;;;;;;;;2114908;28;20384;-44
2021/10/13 01:16:55;;;;;;;;;;;;;;;;;;2115026;28;19930;-44
2021/10/13 01:17:57;;;;;;;;;;;;;;;;;;2115070;28;20132;-45
2021/10/13 01:18:58;;;;;;;;;;;;;;;;;;2114951;28;20080;-45
2021/10/13 01:19:59;;;;;;;;;;;;;;;;;;2115093;28;19969;-44
2021/10/13 01:20:59;;;;;;;;;;;;;;;;;;2114823;28;19961;-44
2021/10/13 01:22:00;;;;;;;;;;;;;;;;;;2114824;28;19924;-44
2021/10/13 01:23:01;;;;;;;;;;;;;;;;;;2115133;28;19946;-44
2021/10/13 01:24:02;;;;;;;;;;;;;;;;;;2114924;28;20046;-44
2021/10/13 01:25:03;;;;;;;;;;;;;;;;;;2114912;28;20029;-45
2021/10/13 01:26:03;;;;;;;;;;;;;;;;;;2114694;28;19969;-45
2021/10/13 01:27:04;;;;;;;;;;;;;;;;;;2115127;28;19927;-44
2021/10/13 01:28:05;;;;;;;;;;;;;;;;;;2114845;28;20330;-44
2021/10/13 01:29:06;;;;;;;;;;;;;;;;;;2115023;28;19956;-44
2021/10/13 01:30:07;;;;;;;;;;;;;;;;;;2114629;28;20026;-44
2021/10/13 01:31:07;;;;;;;;;;;;;;;;;;2114940;28;20365;-45
2021/10/13 01:32:08;;;;;;;;;;;;;;;;;;2114708;28;20326;-44
2021/10/13 01:33:09;;;;;;;;;;;;;;;;;;2115199;28;20335;-45
2021/10/13 01:34:10;;;;;;;;;;;;;;;;;;2114796;28;20312;-45
2021/10/13 01:35:11;;;;;;;;;;;;;;;;;;2114963;28;20389;-44
2021/10/13 01:36:12;;;;;;;;;;;;;;;;;;2114543;28;19985;-44
2021/10/13 01:37:12;;;;;;;;;;;;;;;;;;2115099;28;19946;-44
2021/10/13 01:38:13;;;;;;;;;;;;;;;;;;2114687;28;20369;-44
2021/10/13 01:39:15;;;;;;;;;;;;;;;;;;2114939;28;19927;-44
2021/10/13 01:40:15;;;;;;;;;;;;;;;;;;2114690;28;20326;-44
2021/10/13 01:41:16;;;;;;;;;;;;;;;;;;2114681;28;19931;-44
2021/10/13 01:42:17;;;;;;;;;;;;;;;;;;2114553;28;19924;-44
2021/10/13 01:43:18;;;;;;;;;;;;;;;;;;2114774;28;20373;-44
2021/10/13 01:44:19;;;;;;;;;;;;;;;;;;2114806;28;19935;-44
2021/10/13 01:45:19;;;;;;;;;;;;;;;;;;2114874;28;19936;-44
2021/10/13 01:46:20;;;;;;;;;;;;;;;;;;2114752;28;20008;-44
2021/10/13 01:47:21;;;;;;;;;;;;;;;;;;2114861;28;19923;-44
2021/10/13 01:48:22;;;;;;;;;;;;;;;;;;2114687;28;19927;-45
2021/10/13 01:49:23;;;;;;;;;;;;;;;;;;2114674;28;19934;-45
2021/10/13 01:50:24;;;;;;;;;;;;;;;;;;2114628;28;19923;-44
2021/10/13 01:51:24;;;;;;;;;;;;;;;;;;2114778;28;19923;-44
2021/10/13 01:52:25;;;;;;;;;;;;;;;;;;2114721;28;19965;-44
2021/10/13 01:53:26;;;;;;;;;;;;;;;;;;2114575;28;19924;-44
2021/10/13 01:54:27;;;;;;;;;;;;;;;;;;2114692;28;19988;-44
2021/10/13 01:55:28;;;;;;;;;;;;;;;;;;2114652;28;20387;-44
2021/10/13 01:56:28;;;;;;;;;;;;;;;;;;2114711;28;20307;-44
2021/10/13 01:57:29;;;;;;;;;;;;;;;;;;2114667;28;20273;-44
2021/10/13 01:58:30;;;;;;;;;;;;;;;;;;2114605;28;19924;-44
2021/10/13 01:59:31;;;;;;;;;;;;;;;;;;2114744;28;20076;-44
2021/10/13 02:00:32;;;;;;;;;;;;;;;;;;2114777;28;20008;-44
2021/10/13 02:01:33;;;;;;;;;;;;;;;;;;2114465;28;19935;-44
2021/10/13 02:02:34;;;;;;;;;;;;;;;;;;2114541;28;20292;-44
2021/10/13 02:03:35;;;;;;;;;;;;;;;;;;2114730;28;19923;-44
2021/10/13 02:04:36;;;;;;;;;;;;;;;;;;2114607;28;19931;-44
2021/10/13 02:05:36;;;;;;;;;;;;;;;;;;2114431;28;19924;-44
2021/10/13 02:06:37;;;;;;;;;;;;;;;;;;2114571;28;19924;-44
2021/10/13 02:07:38;;;;;;;;;;;;;;;;;;2114523;28;19923;-44
2021/10/13 02:08:39;;;;;;;;;;;;;;;;;;2114564;28;20383;-45
2021/10/13 02:09:39;;;;;;;;;;;;;;;;;;2114525;28;19924;-45
2021/10/13 02:10:40;;;;;;;;;;;;;;;;;;2114524;28;19928;-44
2021/10/13 02:11:41;;;;;;;;;;;;;;;;;;2114646;28;20368;-44
2021/10/13 02:12:42;;;;;;;;;;;;;;;;;;2114539;28;20323;-44
2021/10/13 02:13:43;;;;;;;;;;;;;;;;;;2114707;28;19928;-44
2021/10/13 02:14:44;;;;;;;;;;;;;;;;;;2114523;28;20315;-44
2021/10/13 02:15:45;;;;;;;;;;;;;;;;;;2114533;28;19923;-45
2021/10/13 02:16:46;;;;;;;;;;;;;;;;;;2114323;28;20376;-44
2021/10/13 02:17:47;;;;;;;;;;;;;;;;;;2114645;28;19980;-44
2021/10/13 02:18:48;;;;;;;;;;;;;;;;;;2114387;28;19924;-44
2021/10/13 02:19:48;;;;;;;;;;;;;;;;;;2114719;28;19924;-44
2021/10/13 02:20:49;;;;;;;;;;;;;;;;;;2114393;28;19931;-44
2021/10/13 02:21:50;;;;;;;;;;;;;;;;;;2114550;28;20257;-44
2021/10/13 02:22:51;;;;;;;;;;;;;;;;;;2114356;28;19928;-44
2021/10/13 02:23:53;;;;;;;;;;;;;;;;;;2114604;28;19924;-44
2021/10/13 02:24:54;;;;;;;;;;;;;;;;;;2114273;28;20306;-44
2021/10/13 02:25:54;;;;;;;;;;;;;;;;;;2114417;28;19928;-44
2021/10/13 02:26:55;;;;;;;;;;;;;;;;;;2114452;28;19923;-44
2021/10/13 02:27:56;;;;;;;;;;;;;;;;;;2114791;28;19923;-44
2021/10/13 02:28:57;;;;;;;;;;;;;;;;;;2114283;28;19984;-44
2021/10/13 02:29:58;;;;;;;;;;;;;;;;;;2114587;28;20010;-45
2021/10/13 02:30:58;;;;;;;;;;;;;;;;;;2113950;28;19951;-44
2021/10/13 02:31:59;;;;;;;;;;;;;;;;;;2114570;28;19923;-44
2021/10/13 02:33:00;;;;;;;;;;;;;;;;;;2114326;28;20007;-44
2021/10/13 02:34:01;;;;;;;;;;;;;;;;;;2114600;28;19924;-44
2021/10/13 02:35:02;;;;;;;;;;;;;;;;;;2114188;28;20123;-44
2021/10/13 02:36:02;;;;;;;;;;;;;;;;;;2114461;28;20380;-45
2021/10/13 02:37:03;;;;;;;;;;;;;;;;;;2114228;28;19931;-44
2021/10/13 02:38:04;;;;;;;;;;;;;;;;;;2114701;28;20338;-44
2021/10/13 02:39:05;;;;;;;;;;;;;;;;;;2114115;28;20277;-44
2021/10/13 02:40:06;;;;;;;;;;;;;;;;;;2114468;28;20490;-45
2021/10/13 02:41:07;;;;;;;;;;;;;;;;;;2114233;28;20372;-45
2021/10/13 02:42:07;;;;;;;;;;;;;;;;;;2114395;28;20341;-45
2021/10/13 02:43:08;;;;;;;;;;;;;;;;;;2114295;28;20292;-44
2021/10/13 02:44:09;;;;;;;;;;;;;;;;;;2114302;28;20187;-44
2021/10/13 02:45:10;;;;;;;;;;;;;;;;;;2114325;28;20022;-44
2021/10/13 02:46:10;;;;;;;;;;;;;;;;;;2114217;28;19939;-44
2021/10/13 02:47:12;;;;;;;;;;;;;;;;;;2114366;28;19931;-45
2021/10/13 02:48:17;;;;;;;;;;;;;;;;;;2114333;28;20404;-44
2021/10/13 02:49:17;;;;;;;;;;;;;;;;;;2114467;28;19923;-45
2021/10/13 02:50:19;;;;;;;;;;;;;;;;;;2114395;28;19976;-44
2021/10/13 02:51:20;;;;;;;;;;;;;;;;;;2114439;28;19984;-44
2021/10/13 02:52:21;;;;;;;;;;;;;;;;;;2114417;28;20277;-44
2021/10/13 02:53:22;;;;;;;;;;;;;;;;;;2114320;28;20284;-44
2021/10/13 02:54:22;;;;;;;;;;;;;;;;;;2114380;28;19977;-44
2021/10/13 02:55:23;;;;;;;;;;;;;;;;;;2114327;28;20323;-44
2021/10/13 02:56:24;;;;;;;;;;;;;;;;;;2114258;28;19923;-44
2021/10/13 02:57:25;;;;;;;;;;;;;;;;;;2114281;28;19928;-44
2021/10/13 02:58:25;;;;;;;;;;;;;;;;;;2114230;28;20081;-44
2021/10/13 02:59:26;;;;;;;;;;;;;;;;;;2114195;28;20380;-44
2021/10/13 03:00:27;;;;;;;;;;;;;;;;;;2114147;28;19924;-44
2021/10/13 03:01:28;;;;;;;;;;;;;;;;;;2114362;28;19924;-44
2021/10/13 03:02:29;;;;;;;;;;;;;;;;;;2114223;28;20031;-44
2021/10/13 03:03:30;;;;;;;;;;;;;;;;;;2114305;28;19923;-44
2021/10/13 03:04:31;;;;;;;;;;;;;;;;;;2114199;28;19924;-44
2021/10/13 03:05:32;;;;;;;;;;;;;;;;;;2114338;28;19955;-44
2021/10/13 03:06:32;;;;;;;;;;;;;;;;;;2114214;28;19996;-44
2021/10/13 03:07:33;;;;;;;;;;;;;;;;;;2114272;28;19932;-44
2021/10/13 03:08:34;;;;;;;;;;;;;;;;;;2114027;28;19924;-44
2021/10/13 03:09:35;;;;;;;;;;;;;;;;;;2114436;28;19949;-45
2021/10/13 03:10:35;;;;;;;;;;;;;;;;;;2114171;28;19923;-44
2021/10/13 03:11:36;;;;;;;;;;;;;;;;;;2114456;28;20284;-44
2021/10/13 03:12:37;;;;;;;;;;;;;;;;;;2114190;28;19924;-44
2021/10/13 03:13:38;;;;;;;;;;;;;;;;;;2114046;28;19931;-44
2021/10/13 03:14:39;;;;;;;;;;;;;;;;;;2114416;28;19932;-44
2021/10/13 03:15:40;;;;;;;;;;;;;;;;;;2114105;28;20261;-45
2021/10/13 03:16:40;;;;;;;;;;;;;;;;;;2114402;28;19930;-44
2021/10/13 03:17:41;;;;;;;;;;;;;;;;;;2116518;28;19931;-45
2021/10/13 03:18:42;;;;;;;;;;;;;;;;;;2117234;28;19923;-44
2021/10/13 03:19:43;;;;;;;;;;;;;;;;;;2117047;28;19972;-44
2021/10/13 03:20:43;;;;;;;;;;;;;;;;;;2116933;28;19930;-45
2021/10/13 03:21:44;;;;;;;;;;;;;;;;;;2116946;28;19924;-44
2021/10/13 03:22:45;;;;;;;;;;;;;;;;;;2117034;28;19930;-44
2021/10/13 03:23:46;;;;;;;;;;;;;;;;;;2116967;28;20292;-44
2021/10/13 03:24:47;;;;;;;;;;;;;;;;;;2117035;28;19973;-44
2021/10/13 03:25:51;;;;;;;;;;;;;;;;;;2116691;27;19924;-45
2021/10/13 03:26:51;;;;;;;;;;;;;;;;;;2116971;28;20011;-44
2021/10/13 03:27:52;;;;;;;;;;;;;;;;;;2116924;28;19928;-44
2021/10/13 03:28:53;;;;;;;;;;;;;;;;;;2117035;28;19957;-44
2021/10/13 03:29:54;;;;;;;;;;;;;;;;;;2116946;28;19924;-45
2021/10/13 03:30:55;;;;;;;;;;;;;;;;;;2116947;28;19924;-44
2021/10/13 03:31:56;;;;;;;;;;;;;;;;;;2116843;28;20334;-45
2021/10/13 03:32:56;;;;;;;;;;;;;;;;;;2116996;28;19923;-44
2021/10/13 03:33:57;;;;;;;;;;;;;;;;;;2116712;28;19931;-44
2021/10/13 03:34:58;;;;;;;;;;;;;;;;;;2117158;28;19931;-44
2021/10/13 03:35:59;;;;;;;;;;;;;;;;;;2116738;28;20027;-44
2021/10/13 03:37:00;;;;;;;;;;;;;;;;;;2117029;28;19923;-44
2021/10/13 03:38:00;;;;;;;;;;;;;;;;;;2116817;28;19949;-45
2021/10/13 03:39:01;;;;;;;;;;;;;;;;;;2116966;28;19923;-44
2021/10/13 03:40:02;;;;;;;;;;;;;;;;;;2116886;28;19924;-44
2021/10/13 03:41:03;;;;;;;;;;;;;;;;;;2116890;28;19927;-44
2021/10/13 03:42:04;;;;;;;;;;;;;;;;;;2116907;28;19955;-44
2021/10/13 03:43:04;;;;;;;;;;;;;;;;;;2116777;28;19992;-44
2021/10/13 03:44:05;;;;;;;;;;;;;;;;;;2117031;28;19923;-44
2021/10/13 03:45:06;;;;;;;;;;;;;;;;;;2116826;28;19949;-44
2021/10/13 03:46:07;;;;;;;;;;;;;;;;;;2116899;28;19924;-44
2021/10/13 03:47:08;;;;;;;;;;;;;;;;;;2116675;28;19974;-45
2021/10/13 03:48:08;;;;;;;;;;;;;;;;;;2117045;28;19924;-44
2021/10/13 03:49:10;;;;;;;;;;;;;;;;;;2116822;28;19924;-45
2021/10/13 03:50:10;;;;;;;;;;;;;;;;;;2117218;28;20262;-56
2021/10/13 03:51:11;;;;;;;;;;;;;;;;;;2116732;28;20380;-56
2021/10/13 03:52:12;;;;;;;;;;;;;;;;;;2117187;28;19924;-56
2021/10/13 03:53:13;;;;;;;;;;;;;;;;;;2116901;28;19927;-56
2021/10/13 03:54:14;;;;;;;;;;;;;;;;;;2116786;28;19927;-56
2021/10/13 03:55:14;;;;;;;;;;;;;;;;;;2116692;28;19932;-56
2021/10/13 03:56:15;;;;;;;;;;;;;;;;;;2116778;28;19924;-56
2021/10/13 03:57:16;;;;;;;;;;;;;;;;;;2116736;28;19930;-56
2021/10/13 03:58:17;;;;;;;;;;;;;;;;;;2116961;27;19924;-56
2021/10/13 03:59:18;;;;;;;;;;;;;;;;;;2116624;28;19923;-56
2021/10/13 04:00:19;;;;;;;;;;;;;;;;;;2116980;28;20012;-56
2021/10/13 04:01:19;;;;;;;;;;;;;;;;;;2116571;28;20382;-56
2021/10/13 04:02:20;;;;;;;;;;;;;;;;;;2116992;28;19931;-56
2021/10/13 04:03:21;;;;;;;;;;;;;;;;;;2116518;28;19923;-56
2021/10/13 04:04:22;;;;;;;;;;;;;;;;;;2116844;28;19930;-56
2021/10/13 04:05:23;;;;;;;;;;;;;;;;;;2116651;28;20410;-56
2021/10/13 04:06:24;;;;;;;;;;;;;;;;;;2116903;28;20056;-56
2021/10/13 04:07:25;;;;;;;;;;;;;;;;;;2116568;28;19927;-56
2021/10/13 04:08:25;;;;;;;;;;;;;;;;;;2116827;28;19923;-56
2021/10/13 04:09:26;;;;;;;;;;;;;;;;;;2116818;28;19980;-56
2021/10/13 04:10:27;;;;;;;;;;;;;;;;;;2116603;28;20339;-56
2021/10/13 04:11:28;;;;;;;;;;;;;;;;;;2116734;28;19923;-56
2021/10/13 04:12:29;;;;;;;;;;;;;;;;;;2116546;28;19923;-56
2021/10/13 04:13:30;;;;;;;;;;;;;;;;;;2116880;28;20019;-56
2021/10/13 04:14:31;;;;;;;;;;;;;;;;;;2116656;28;20002;-56
2021/10/13 04:15:32;;;;;;;;;;;;;;;;;;2116762;28;19930;-56
2021/10/13 04:16:32;;;;;;;;;;;;;;;;;;2116539;28;20044;-57
2021/10/13 04:17:33;;;;;;;;;;;;;;;;;;2116713;28;19928;-56
2021/10/13 04:18:34;;;;;;;;;;;;;;;;;;2116775;28;20002;-56
2021/10/13 04:19:35;;;;;;;;;;;;;;;;;;2116839;28;19924;-56
2021/10/13 04:20:36;;;;;;;;;;;;;;;;;;2116468;28;19923;-56
2021/10/13 04:21:37;;;;;;;;;;;;;;;;;;2116563;28;19931;-56
2021/10/13 04:22:37;;;;;;;;;;;;;;;;;;2116517;28;19924;-56
2021/10/13 04:23:38;;;;;;;;;;;;;;;;;;2116823;27;19927;-56
2021/10/13 04:24:39;;;;;;;;;;;;;;;;;;2116660;28;20288;-56
2021/10/13 04:25:40;;;;;;;;;;;;;;;;;;2116665;28;20368;-56
2021/10/13 04:26:41;;;;;;;;;;;;;;;;;;2116664;28;19924;-57
2021/10/13 04:27:41;;;;;;;;;;;;;;;;;;2116537;28;19924;-56
2021/10/13 04:28:42;;;;;;;;;;;;;;;;;;2114911;28;19952;-56
2021/10/13 04:29:43;;;;;;;;;;;;;;;;;;2114858;28;19924;-56
2021/10/13 04:30:44;;;;;;;;;;;;;;;;;;2115336;28;20360;-56
2021/10/13 04:31:45;;;;;;;;;;;;;;;;;;2115232;28;20330;-56
2021/10/13 04:32:46;;;;;;;;;;;;;;;;;;2115332;28;20199;-56
2021/10/13 04:33:46;;;;;;;;;;;;;;;;;;2115291;28;19923;-56
2021/10/13 04:34:48;;;;;;;;;;;;;;;;;;2115195;28;19931;-56
2021/10/13 04:35:48;;;;;;;;;;;;;;;;;;2115085;28;20006;-56
2021/10/13 04:36:49;;;;;;;;;;;;;;;;;;2115206;28;19924;-56
2021/10/13 04:37:50;;;;;;;;;;;;;;;;;;2115203;28;19931;-56
2021/10/13 04:38:51;;;;;;;;;;;;;;;;;;2115365;28;19924;-56
2021/10/13 04:39:52;;;;;;;;;;;;;;;;;;2115015;28;19930;-56
2021/10/13 04:40:53;;;;;;;;;;;;;;;;;;2115391;28;19932;-44
2021/10/13 04:41:53;;;;;;;;;;;;;;;;;;2115057;28;20380;-44
2021/10/13 04:42:54;;;;;;;;;;;;;;;;;;2115421;28;19923;-44
2021/10/13 04:43:55;;;;;;;;;;;;;;;;;;2114973;28;19923;-44
2021/10/13 04:44:56;;;;;;;;;;;;;;;;;;2115196;28;19924;-45
2021/10/13 04:45:57;;;;;;;;;;;;;;;;;;2114833;28;20000;-44
2021/10/13 04:46:57;;;;;;;;;;;;;;;;;;2115347;28;19931;-44
2021/10/13 04:47:58;;;;;;;;;;;;;;;;;;2114966;28;19938;-44
2021/10/13 04:48:59;;;;;;;;;;;;;;;;;;2115346;28;19923;-45
2021/10/13 04:50:00;;;;;;;;;;;;;;;;;;2114925;28;19924;-44
2021/10/13 04:51:01;;;;;;;;;;;;;;;;;;2115345;28;19923;-44
2021/10/13 04:52:01;;;;;;;;;;;;;;;;;;2115048;28;20006;-44
2021/10/13 04:53:02;;;;;;;;;;;;;;;;;;2115163;28;19933;-44
2021/10/13 04:54:03;;;;;;;;;;;;;;;;;;2114917;28;20223;-44
2021/10/13 04:55:04;;;;;;;;;;;;;;;;;;2115333;28;20056;-44
2021/10/13 04:56:04;;;;;;;;;;;;;;;;;;2114967;28;20388;-45
2021/10/13 04:57:05;;;;;;;;;;;;;;;;;;2115233;28;20407;-44
2021/10/13 04:58:06;;;;;;;;;;;;;;;;;;2114847;28;19931;-45
2021/10/13 04:59:07;;;;;;;;;;;;;;;;;;2115017;28;19923;-45
2021/10/13 05:00:08;;;;;;;;;;;;;;;;;;2114935;28;20431;-44
2021/10/13 05:01:09;;;;;;;;;;;;;;;;;;2115116;28;19930;-45
2021/10/13 05:02:10;;;;;;;;;;;;;;;;;;2115174;28;20014;-45
2021/10/13 05:03:11;;;;;;;;;;;;;;;;;;2115145;28;19924;-45
2021/10/13 05:04:11;;;;;;;;;;;;;;;;;;2115007;28;20381;-44
2021/10/13 05:05:12;;;;;;;;;;;;;;;;;;2115225;28;19931;-45
2021/10/13 05:06:13;;;;;;;;;;;;;;;;;;2114945;28;19928;-44
2021/10/13 05:07:14;;;;;;;;;;;;;;;;;;2115060;28;19928;-44
2021/10/13 05:08:15;;;;;;;;;;;;;;;;;;2114888;28;19932;-44
2021/10/13 05:09:16;;;;;;;;;;;;;;;;;;2115115;28;19931;-45
2021/10/13 05:10:16;;;;;;;;;;;;;;;;;;2115241;28;20420;-45
2021/10/13 05:11:17;;;;;;;;;;;;;;;;;;2114938;28;19928;-45
2021/10/13 05:12:18;;;;;;;;;;;;;;;;;;2115002;28;20556;-45
2021/10/13 05:13:22;;;;;;;;;;;;;;;;;;2114828;28;20398;-44
2021/10/13 05:14:23;;;;;;;;;;;;;;;;;;2115038;28;20113;-44
2021/10/13 05:15:24;;;;;;;;;;;;;;;;;;2114855;28;19927;-45
2021/10/13 05:16:24;;;;;;;;;;;;;;;;;;2114942;28;19976;-45
2021/10/13 05:17:25;;;;;;;;;;;;;;;;;;2114784;28;19931;-45
2021/10/13 05:18:26;;;;;;;;;;;;;;;;;;2114955;28;19930;-44
2021/10/13 05:19:27;;;;;;;;;;;;;;;;;;2114814;28;19930;-44
2021/10/13 05:20:27;;;;;;;;;;;;;;;;;;2114869;28;19923;-44
2021/10/13 05:21:28;;;;;;;;;;;;;;;;;;2114830;28;19973;-44
2021/10/13 05:22:29;;;;;;;;;;;;;;;;;;2114943;28;20548;-44
2021/10/13 05:23:30;;;;;;;;;;;;;;;;;;2114932;28;20415;-44
2021/10/13 05:24:30;;;;;;;;;;;;;;;;;;2114991;28;19923;-44
2021/10/13 05:25:31;;;;;;;;;;;;;;;;;;2114711;28;20308;-44
2021/10/13 05:26:32;;;;;;;;;;;;;;;;;;2114813;28;19931;-44
2021/10/13 05:27:33;;;;;;;;;;;;;;;;;;2114926;28;19973;-44
2021/10/13 05:28:34;;;;;;;;;;;;;;;;;;2114809;28;19923;-44
2021/10/13 05:29:39;;;;;;;;;;;;;;;;;;2114949;28;19923;-45
2021/10/13 05:30:39;;;;;;;;;;;;;;;;;;2114803;28;19954;-44
2021/10/13 05:31:40;;;;;;;;;;;;;;;;;;2115003;28;20288;-44
2021/10/13 05:32:41;;;;;;;;;;;;;;;;;;2114819;28;19923;-45
2021/10/13 05:33:42;;;;;;;;;;;;;;;;;;2114945;28;19931;-44
2021/10/13 05:34:43;;;;;;;;;;;;;;;;;;2114692;28;19923;-44
2021/10/13 05:35:44;;;;;;;;;;;;;;;;;;2115004;28;19931;-45
2021/10/13 05:36:44;;;;;;;;;;;;;;;;;;2114839;28;20373;-44
2021/10/13 05:37:45;;;;;;;;;;;;;;;;;;2114850;28;19924;-44
2021/10/13 05:38:46;;;;;;;;;;;;;;;;;;2114938;28;19938;-44
2021/10/13 05:39:47;;;;;;;;;;;;;;;;;;2114866;28;19931;-44
2021/10/13 05:40:48;;;;;;;;;;;;;;;;;;2114434;28;19930;-45
2021/10/13 05:41:51;;;;;;;;;;;;;;;;;;2114805;28;19930;-44
2021/10/13 05:42:52;;;;;;;;;;;;;;;;;;2114641;28;19924;-44
2021/10/13 05:43:52;;;;;;;;;;;;;;;;;;2114777;28;19923;-44
2021/10/13 05:44:53;;;;;;;;;;;;;;;;;;2114636;28;19927;-44
2021/10/13 05:45:54;;;;;;;;;;;;;;;;;;2114844;28;19929;-44
2021/10/13 05:46:55;;;;;;;;;;;;;;;;;;2114565;28;20365;-44
2021/10/13 05:47:56;;;;;;;;;;;;;;;;;;2114848;28;19924;-44
2021/10/13 05:48:56;;;;;;;;;;;;;;;;;;2114606;28;20441;-45
2021/10/13 05:49:57;;;;;;;;;;;;;;;;;;2114922;28;20277;-44
2021/10/13 05:50:58;;;;;;;;;;;;;;;;;;2114680;28;20043;-44
2021/10/13 05:51:59;;;;;;;;;;;;;;;;;;2114806;28;19977;-44
2021/10/13 05:53:00;;;;;;;;;;;;;;;;;;2114611;28;19930;-44
2021/10/13 05:54:15;;;;;;;;;;;;;;;;;;2114774;28;19923;-44
2021/10/13 05:55:16;;;;;;;;;;;;;;;;;;2114623;28;19930;-44
2021/10/13 05:56:17;;;;;;;;;;;;;;;;;;2114637;28;19924;-44
2021/10/13 05:57:18;;;;;;;;;;;;;;;;;;2114616;28;19930;-44
2021/10/13 05:58:21;;;;;;;;;;;;;;;;;;2114790;28;19928;-44
2021/10/13 05:59:22;;;;;;;;;;;;;;;;;;2114682;28;20003;-44
2021/10/13 06:00:27;;;;;;;;;;;;;;;;;;2114709;28;19972;-44
2021/10/13 06:01:28;;;;;;;;;;;;;;;;;;2114663;28;19931;-44
2021/10/13 06:02:29;;;;;;;;;;;;;;;;;;2114531;28;20433;-44
2021/10/13 06:03:30;;;;;;;;;;;;;;;;;;2114579;28;19989;-44
2021/10/13 06:04:31;;;;;;;;;;;;;;;;;;2114899;28;19923;-57
2021/10/13 06:05:32;;;;;;;;;;;;;;;;;;2114581;28;20022;-56
2021/10/13 06:06:32;;;;;;;;;;;;;;;;;;2114592;28;20011;-56
2021/10/13 06:07:33;;;;;;;;;;;;;;;;;;2114606;28;19980;-56
2021/10/13 06:08:34;;;;;;;;;;;;;;;;;;2114636;28;20423;-56
2021/10/13 06:09:35;;;;;;;;;;;;;;;;;;2114759;28;19932;-56
2021/10/13 06:10:36;;;;;;;;;;;;;;;;;;2114515;28;19923;-56
2021/10/13 06:11:37;;;;;;;;;;;;;;;;;;2114696;28;19961;-56
2021/10/13 06:12:38;;;;;;;;;;;;;;;;;;2114439;28;19927;-56
2021/10/13 06:13:38;;;;;;;;;;;;;;;;;;2114682;28;19931;-57
2021/10/13 06:14:39;;;;;;;;;;;;;;;;;;2114431;28;20513;-56
2021/10/13 06:15:40;;;;;;;;;;;;;;;;;;2114561;28;20157;-57
2021/10/13 06:16:41;;;;;;;;;;;;;;;;;;2114490;28;20313;-56
2021/10/13 06:17:42;;;;;;;;;;;;;;;;;;2114701;28;20447;-56
2021/10/13 06:18:43;;;;;;;;;;;;;;;;;;2114544;28;19963;-56
2021/10/13 06:19:43;;;;;;;;;;;;;;;;;;2114636;28;19934;-56
2021/10/13 06:20:44;;;;;;;;;;;;;;;;;;2114191;28;19977;-56
2021/10/13 06:21:45;;;;;;;;;;;;;;;;;;2114692;28;19934;-56
2021/10/13 06:22:46;;;;;;;;;;;;;;;;;;2114309;28;19930;-56
2021/10/13 06:23:46;;;;;;;;;;;;;;;;;;2114714;28;19924;-56
2021/10/13 06:24:47;;;;;;;;;;;;;;;;;;2114236;28;19924;-56
2021/10/13 06:25:48;;;;;;;;;;;;;;;;;;2114579;28;19923;-56
2021/10/13 06:26:49;;;;;;;;;;;;;;;;;;2114279;28;20241;-56
2021/10/13 06:27:50;;;;;;;;;;;;;;;;;;2114712;28;19977;-56
2021/10/13 06:28:51;;;;;;;;;;;;;;;;;;2114342;28;20364;-57
2021/10/13 06:29:52;;;;;;;;;;;;;;;;;;2114543;28;19923;-57
2021/10/13 06:30:52;;;;;;;;;;;;;;;;;;2114170;28;19924;-57
2021/10/13 06:31:53;;;;;;;;;;;;;;;;;;2114591;28;19927;-57
2021/10/13 06:32:54;;;;;;;;;;;;;;;;;;2114249;28;19960;-56
2021/10/13 06:33:55;;;;;;;;;;;;;;;;;;2114537;28;19928;-56
2021/10/13 06:34:55;;;;;;;;;;;;;;;;;;2114341;28;19930;-56
2021/10/13 06:35:56;;;;;;;;;;;;;;;;;;2114504;28;19924;-56
2021/10/13 06:36:57;;;;;;;;;;;;;;;;;;2114326;28;19952;-56
2021/10/13 06:37:58;;;;;;;;;;;;;;;;;;2114510;28;19946;-56
2021/10/13 06:38:59;;;;;;;;;;;;;;;;;;2114248;28;19924;-56
2021/10/13 06:40:00;;;;;;;;;;;;;;;;;;2114384;28;19924;-56
2021/10/13 06:41:01;;;;;;;;;;;;;;;;;;2114304;28;19923;-56
2021/10/13 06:42:01;;;;;;;;;;;;;;;;;;2114392;28;19968;-56
2021/10/13 06:43:04;;;;;;;;;;;;;;;;;;2114467;28;19924;-56
2021/10/13 06:44:05;;;;;;;;;;;;;;;;;;2114315;28;19955;-56
2021/10/13 06:45:05;;;;;;;;;;;;;;;;;;2114329;28;19976;-56
2021/10/13 06:46:06;;;;;;;;;;;;;;;;;;2114246;28;19976;-56
2021/10/13 06:47:07;;;;;;;;;;;;;;;;;;2114482;28;19924;-56
2021/10/13 06:48:08;;;;;;;;;;;;;;;;;;2114373;28;19959;-57
2021/10/13 06:49:09;;;;;;;;;;;;;;;;;;2114336;28;19923;-56
2021/10/13 06:50:10;;;;;;;;;;;;;;;;;;2114350;28;20391;-57
2021/10/13 06:51:11;;;;;;;;;;;;;;;;;;2114371;28;19924;-56
2021/10/13 06:52:14;;;;;;;;;;;;;;;;;;2113417;28;20347;-56
2021/10/13 06:53:14;;;;;;;;;;;;;;;;;;2114225;28;19932;-57
2021/10/13 06:54:15;;;;;;;;;;;;;;;;;;2114244;28;19928;-56
2021/10/13 06:55:16;;;;;;;;;;;;;;;;;;2114477;28;19924;-56
2021/10/13 06:56:17;;;;;;;;;;;;;;;;;;2114202;28;19973;-56